Time,TemperatureF,DewpointF,PressureIn,WindDirection,WindDirectionDegrees,WindSpeedMPH,WindSpeedGustMPH,Humidity,HourlyPrecipIn,Conditions,Clouds,dailyrainin,SoftwareType,DateUTC
2013-04-05 06:55:00,-999.0,-99.9,0.00,North,-999,-999.0,-999.0,-999,0.00,,,0.00,weatherlink.com 1.10,2013-04-05 11:55:00,
2013-04-05 07:10:00,-999.0,-99.9,30.18,North,-999,-999.0,-999.0,-999,0.00,,,0.00,weatherlink.com 1.10,2013-04-05 12:10:00,
2013-04-05 07:25:00,32.9,29.0,30.18,ESE,112,5.0,7.0,85,0.00,,,0.00,weatherlink.com 1.10,2013-04-05 12:25:00,
2013-04-05 07:40:00,33.6,30.0,30.18,East,94,6.0,9.0,85,0.00,,,0.00,weatherlink.com 1.10,2013-04-05 12:40:00,
2013-04-05 07:55:00,34.4,30.0,30.17,ESE,121,7.0,9.0,84,0.00,,,0.00,weatherlink.com 1.10,2013-04-05 12:55:00,
2013-04-05 08:10:00,34.4,30.0,30.16,East,101,9.0,12.0,83,0.00,,,0.00,weatherlink.com 1.10,2013-04-05 13:10:00,
2013-04-05 08:25:00,36.4,31.0,30.18,SE,129,4.0,12.0,81,0.00,,,0.00,weatherlink.com 1.10,2013-04-05 13:25:00,
2013-04-05 08:40:00,38.6,32.0,30.18,ESE,123,10.0,11.0,77,0.00,,,0.00,weatherlink.com 1.10,2013-04-05 13:40:00,
2013-04-05 08:55:00,39.6,32.0,30.17,SE,143,6.0,14.0,73,0.00,,,0.00,weatherlink.com 1.10,2013-04-05 13:55:00,
2013-04-05 09:10:00,41.0,32.0,30.17,SE,137,8.0,13.0,70,0.00,,,0.00,weatherlink.com 1.10,2013-04-05 14:10:00,
2013-04-05 09:26:00,42.9,33.0,30.18,ESE,121,8.0,11.0,69,0.00,,,0.00,weatherlink.com 1.10,2013-04-05 14:26:00,
2013-04-05 09:41:00,44.4,33.0,30.17,SSE,150,5.0,13.0,65,0.00,,,0.00,weatherlink.com 1.10,2013-04-05 14:41:00,
2013-04-05 09:56:00,46.0,33.0,30.16,SE,133,9.0,14.0,61,0.00,,,0.00,weatherlink.com 1.10,2013-04-05 14:56:00,
2013-04-05 10:11:00,44.6,33.0,30.15,SE,128,12.0,15.0,63,0.00,,,0.00,weatherlink.com 1.10,2013-04-05 15:11:00,
2013-04-05 10:26:00,45.4,32.0,30.14,South,175,3.0,15.0,61,0.00,,,0.00,weatherlink.com 1.10,2013-04-05 15:26:00,
2013-04-05 10:41:00,47.1,33.0,30.14,SE,145,13.0,16.0,58,0.00,,,0.00,weatherlink.com 1.10,2013-04-05 15:41:00,
2013-04-05 10:56:00,49.8,34.0,30.13,SSE,149,9.0,19.0,55,0.00,,,0.00,weatherlink.com 1.10,2013-04-05 15:56:00,
2013-04-05 12:00:00,54.1,35.0,30.09,SE,146,8.0,20.0,49,0.00,,,0.00,weatherlink.com 1.10,2013-04-05 17:00:00,
2013-04-05 12:11:00,55.7,37.0,30.08,SSE,167,12.0,20.0,49,0.00,,,0.00,weatherlink.com 1.10,2013-04-05 17:11:00,
2013-04-05 12:26:00,56.3,36.0,30.07,SSE,168,10.0,20.0,47,0.00,,,0.00,weatherlink.com 1.10,2013-04-05 17:26:00,
2013-04-05 12:41:00,57.1,36.0,30.06,SE,130,8.0,18.0,46,0.00,,,0.00,weatherlink.com 1.10,2013-04-05 17:41:00,
2013-04-05 12:56:00,58.3,37.0,30.05,SSE,150,7.0,20.0,46,0.00,,,0.00,weatherlink.com 1.10,2013-04-05 17:56:00,
2013-04-05 13:11:00,59.7,38.0,30.04,SE,131,13.0,22.0,45,0.00,,,0.00,weatherlink.com 1.10,2013-04-05 18:11:00,
2013-04-05 13:41:00,62.7,40.0,30.00,SE,141,7.0,21.0,43,0.00,,,0.00,weatherlink.com 1.10,2013-04-05 18:41:00,
2013-04-05 13:56:00,62.1,39.0,29.99,SSE,159,12.0,20.0,43,0.00,,,0.00,weatherlink.com 1.10,2013-04-05 18:56:00,
2013-04-05 14:11:00,62.8,40.0,29.98,SSE,148,14.0,23.0,43,0.00,,,0.00,weatherlink.com 1.10,2013-04-05 19:11:00,
2013-04-05 14:26:00,64.7,40.0,29.97,SW,223,20.0,23.0,41,0.00,,,0.00,weatherlink.com 1.10,2013-04-05 19:26:00,
2013-04-05 14:41:00,64.4,41.0,29.96,South,190,10.0,26.0,42,0.00,,,0.00,weatherlink.com 1.10,2013-04-05 19:41:00,
2013-04-05 14:56:00,63.8,41.0,29.94,South,172,17.0,26.0,43,0.00,,,0.00,weatherlink.com 1.10,2013-04-05 19:56:00,
2013-04-05 15:11:00,64.1,41.0,29.93,South,180,18.0,24.0,43,0.00,,,0.00,weatherlink.com 1.10,2013-04-05 20:11:00,
2013-04-05 15:26:00,64.4,41.0,29.91,South,182,16.0,24.0,43,0.00,,,0.00,weatherlink.com 1.10,2013-04-05 20:26:00,
2013-04-05 15:42:00,64.6,41.0,29.90,South,183,14.0,27.0,43,0.00,,,0.00,weatherlink.com 1.10,2013-04-05 20:42:00,
2013-04-05 15:57:00,65.4,42.0,29.88,SSE,163,10.0,20.0,42,0.00,,,0.00,weatherlink.com 1.10,2013-04-05 20:57:00,
2013-04-05 16:12:00,66.5,42.0,29.87,South,173,11.0,23.0,41,0.00,,,0.00,weatherlink.com 1.10,2013-04-05 21:12:00,
2013-04-05 16:27:00,67.2,43.0,29.85,South,172,15.0,21.0,41,0.00,,,0.00,weatherlink.com 1.10,2013-04-05 21:27:00,
2013-04-05 16:42:00,67.9,42.0,29.84,South,171,15.0,22.0,39,0.00,,,0.00,weatherlink.com 1.10,2013-04-05 21:42:00,
2013-04-05 16:57:00,67.9,42.0,29.83,South,175,15.0,25.0,39,0.00,,,0.00,weatherlink.com 1.10,2013-04-05 21:57:00,
2013-04-05 17:12:00,68.4,42.0,29.82,South,183,15.0,22.0,38,0.00,,,0.00,weatherlink.com 1.10,2013-04-05 22:12:00,
2013-04-05 17:27:00,68.4,42.0,29.82,South,175,10.0,21.0,38,0.00,,,0.00,weatherlink.com 1.10,2013-04-05 22:27:00,
2013-04-05 17:57:00,68.1,42.0,29.81,South,179,8.0,22.0,39,0.00,,,0.00,weatherlink.com 1.10,2013-04-05 22:57:00,
2013-04-05 18:12:00,68.0,42.0,29.81,South,182,12.0,24.0,39,0.00,,,0.00,weatherlink.com 1.10,2013-04-05 23:12:00,
2013-04-05 18:42:00,68.3,40.0,29.79,South,176,10.0,21.0,35,0.00,,,0.00,weatherlink.com 1.10,2013-04-05 23:42:00,
2013-04-05 18:57:00,68.0,39.0,29.79,South,169,10.0,17.0,35,0.00,,,0.00,weatherlink.com 1.10,2013-04-05 23:57:00,
2013-04-05 19:12:00,67.7,38.0,29.79,South,180,9.0,22.0,34,0.00,,,0.00,weatherlink.com 1.10,2013-04-06 00:12:00,
2013-04-05 19:27:00,67.5,38.0,29.77,SSW,213,9.0,23.0,34,0.00,,,0.00,weatherlink.com 1.10,2013-04-06 00:27:00,
2013-04-05 19:42:00,66.9,38.0,29.77,SW,219,11.0,20.0,34,0.00,,,0.00,weatherlink.com 1.10,2013-04-06 00:42:00,
2013-04-05 19:57:00,66.2,38.0,29.76,South,183,9.0,16.0,35,0.00,,,0.00,weatherlink.com 1.10,2013-04-06 00:57:00,
2013-04-05 20:12:00,65.8,38.0,29.76,SSW,192,7.0,19.0,36,0.00,,,0.00,weatherlink.com 1.10,2013-04-06 01:12:00,
2013-04-05 20:27:00,65.2,37.0,29.76,SSW,201,6.0,18.0,36,0.00,,,0.00,weatherlink.com 1.10,2013-04-06 01:27:00,
2013-04-05 20:42:00,64.2,38.0,29.76,SSW,207,7.0,14.0,38,0.00,,,0.00,weatherlink.com 1.10,2013-04-06 01:42:00,
2013-04-05 20:57:00,63.5,39.0,29.76,South,190,9.0,17.0,40,0.00,,,0.00,weatherlink.com 1.10,2013-04-06 01:57:00,
2013-04-05 21:12:00,62.5,39.0,29.75,SSW,196,11.0,17.0,42,0.00,,,0.00,weatherlink.com 1.10,2013-04-06 02:12:00,
2013-04-05 21:27:00,62.4,39.0,29.75,South,169,13.0,22.0,42,0.00,,,0.00,weatherlink.com 1.10,2013-04-06 02:27:00,
2013-04-05 21:42:00,62.0,39.0,29.75,South,183,10.0,21.0,43,0.00,,,0.00,weatherlink.com 1.10,2013-04-06 02:42:00,
2013-04-05 21:57:00,61.3,39.0,29.75,South,176,14.0,19.0,44,0.00,,,0.00,weatherlink.com 1.10,2013-04-06 02:57:00,
2013-04-05 22:12:00,61.1,39.0,29.74,SSW,211,12.0,22.0,44,0.00,,,0.00,weatherlink.com 1.10,2013-04-06 03:12:00,
2013-04-05 22:27:00,61.0,39.0,29.74,South,183,9.0,23.0,45,0.00,,,0.00,weatherlink.com 1.10,2013-04-06 03:27:00,
2013-04-05 22:42:00,60.6,40.0,29.73,SW,218,14.0,19.0,46,0.00,,,0.00,weatherlink.com 1.10,2013-04-06 03:42:00,
2013-04-05 22:57:00,60.1,40.0,29.73,SSW,210,14.0,18.0,47,0.00,,,0.00,weatherlink.com 1.10,2013-04-06 03:57:00,
2013-04-05 23:12:00,59.8,39.0,29.73,SSW,210,11.0,18.0,47,0.00,,,0.00,weatherlink.com 1.10,2013-04-06 04:12:00,
2013-04-05 23:27:00,59.1,39.0,29.72,SSW,196,8.0,18.0,48,0.00,,,0.00,weatherlink.com 1.10,2013-04-06 04:27:00,
2013-04-05 23:42:00,59.0,40.0,29.71,South,182,14.0,20.0,50,0.00,,,0.00,weatherlink.com 1.10,2013-04-06 04:42:00,
2013-04-05 23:57:00,58.9,41.0,29.71,South,180,14.0,21.0,51,0.00,,,0.00,weatherlink.com 1.10,2013-04-06 04:57:00,